Flight Track Log - Related Links

Times and Time Zones

All times are in EDT time to prevent confusion due to time zone crossing. See the ASQ6115 flight status page for this flight to view local times or setup timezone preferences in your user account.

Time Position Orientation Groundspeed Altitude Reporting Facility
EDT Latitude Longitude Course Direction KTS MPH feet Rate Location/Type
Mon 11:18:28 AM 36.0833 -86.7167 270° West 176 203 2,300  Level Nashville TRACON
Mon 11:19:28 AM 36.0833 -86.7833 270° West 225 259 3,600 1,526 Climbing Nashville TRACON
Mon 11:20:22 AM 36.0833 -86.8667 270° West 265 305 5,200 1,878 Climbing Nashville TRACON
Mon 11:21:00 AM 35.8771 -87.0710 270° West  Level Estimated
Mon 11:21:39 AM 36.0894 -86.9742 274° West 281 323 7,700  Level Memphis Center
Mon 11:22:00 AM 35.8151 -87.1687 255° West  Level Estimated
Mon 11:22:39 AM 36.0922 -87.0769 272° West 286 329 9,800  Level Memphis Center
Mon 11:23:00 AM 35.8373 -87.2898 283° West  Level FlightAware Approximate
Mon 11:23:39 AM 36.0969 -87.1769 273° West 286 329 10,700  Level Memphis Center
Mon 11:24:39 AM 36.0850 -87.2878 262° West 315 362 11,700 1,200 Climbing Memphis Center
Mon 11:25:39 AM 36.0628 -87.3992 256° West 334 384 13,100 1,400 Climbing Memphis Center
Mon 11:26:39 AM 36.0383 -87.5181 256° West 345 397 14,500 1,350 Climbing Memphis Center
Mon 11:27:39 AM 36.0181 -87.6292 257° West 345 397 15,800 1,300 Climbing Memphis Center
Mon 11:28:39 AM 35.9933 -87.7428 255° West 340 391 17,100 1,150 Climbing Memphis Center
Mon 11:29:39 AM 35.9706 -87.8539 256° West 340 391 18,100 1,000 Climbing Memphis Center
Mon 11:30:39 AM 35.9497 -87.9544 256° West 340 391 19,100 1,050 Climbing Memphis Center
Mon 11:31:39 AM 35.9289 -88.0703 258° West 345 397 20,200 1,250 Climbing Memphis Center
Mon 11:32:39 AM 35.9019 -88.1917 255° West 345 397 21,600 1,250 Climbing Memphis Center
Mon 11:33:39 AM 35.8664 -88.3053 249° West 345 397 22,700 1,150 Climbing Memphis Center
Mon 11:34:39 AM 35.8158 -88.4036 238° Southwest 345 397 23,900 1,150 Climbing Memphis Center
Mon 11:35:39 AM 35.7736 -88.5147 245° Southwest 350 403 25,000 1,150 Climbing Memphis Center
Mon 11:36:39 AM 35.7419 -88.6281 251° West 355 409 26,200 1,000 Climbing Memphis Center
Mon 11:37:39 AM 35.7119 -88.7283 250° West 355 409 27,000 750 Climbing Memphis Center
Mon 11:38:39 AM 35.6739 -88.8517 249° West 355 409 27,700 1,000 Climbing Memphis Center
Mon 11:39:39 AM 35.6483 -88.9672 255° West 355 409 29,000 1,200 Climbing Memphis Center
Mon 11:40:39 AM 35.6139 -89.0828 250° West 354 407 30,100 1,100 Climbing Memphis Center
Mon 11:41:39 AM 35.5817 -89.1981 251° West 354 407 31,200 1,050 Climbing Memphis Center
Mon 11:42:39 AM 35.5494 -89.3108 251° West 354 407 32,200 1,050 Climbing Memphis Center
Mon 11:43:39 AM 35.5169 -89.4233 250° West 354 407 33,300 1,050 Climbing Memphis Center
Mon 11:44:39 AM 35.4864 -89.5411 252° West 354 407 34,300 1,000 Climbing Memphis Center
Mon 11:45:39 AM 35.4539 -89.6511 250° West 354 407 35,300 850 Climbing Memphis Center
Mon 11:46:39 AM 35.4189 -89.7633 249° West 349 402 36,000 350 Climbing Memphis Center
Mon 11:47:39 AM 35.3839 -89.8783 250° West 359 413 36,000  Level Memphis Center
Mon 11:48:39 AM 35.3133 -89.9806 230° Southwest 375 432 36,000  Level Memphis Center
Mon 11:49:39 AM 35.2344 -90.0850 227° Southwest 410 472 36,000  Level Memphis Center
Mon 11:50:39 AM 35.1533 -90.1919 227° Southwest 428 493 36,000  Level Memphis Center
Mon 11:51:39 AM 35.0700 -90.3039 228° Southwest 438 504 36,000  Level Memphis Center
Mon 11:52:39 AM 34.9864 -90.4128 227° Southwest 444 511 36,000  Level Memphis Center
Mon 11:53:39 AM 34.9008 -90.5242 227° Southwest 450 518 36,000  Level Memphis Center
Mon 11:54:39 AM 34.8256 -90.6228 227° Southwest 450 518 36,000  Level Memphis Center
Mon 11:55:39 AM 34.7439 -90.7261 226° Southwest 438 504 36,000  Level Memphis Center
Mon 11:56:39 AM 34.6622 -90.8317 227° Southwest 438 504 36,000  Level Memphis Center
Mon 11:57:39 AM 34.5783 -90.9372 226° Southwest 438 504 36,000 -200 Level Memphis Center
Mon 11:58:39 AM 34.4944 -91.0425 226° Southwest 438 504 35,600 -950 Descending Memphis Center
Mon 11:59:39 AM 34.4061 -91.1450 224° Southwest 438 504 34,100 -800 Descending Memphis Center
Mon 12:00:39 PM 34.2992 -91.2119 207° Southwest 443 510 34,000 -50 Descending Memphis Center
Mon 12:01:39 PM 34.1922 -91.2839 209° Southwest 437 503 34,000  Level Memphis Center
Mon 12:02:39 PM 34.0686 -91.3603 207° Southwest 442 509 34,000  Level Memphis Center
Mon 12:03:39 PM 33.9594 -91.4317 208° Southwest 448 516 34,000  Level Memphis Center
Mon 12:05:47 PM 33.7394 -91.5789 209° Southwest 436 502 34,000  Level Fort Worth Center
Mon 12:06:48 PM 33.6256 -91.6464 206° Southwest 436 502 34,000  Level Fort Worth Center
Mon 12:07:47 PM 33.5200 -91.7131 208° Southwest 446 513 34,000  Level Fort Worth Center
Mon 12:08:47 PM 33.4128 -91.7847 209° Southwest 446 513 34,000  Level Fort Worth Center
Mon 12:09:47 PM 33.2989 -91.8542 207° Southwest 446 513 34,000  Level Fort Worth Center
Mon 12:10:47 PM 33.1914 -91.9231 208° Southwest 451 519 34,000  Level Fort Worth Center
Mon 12:11:47 PM 33.0839 -91.9917 208° Southwest 446 513 34,000  Level Fort Worth Center
Mon 12:12:47 PM 32.9697 -92.0578 206° Southwest 446 513 34,000  Level Fort Worth Center
Mon 12:13:47 PM 32.8622 -92.1261 208° Southwest 446 513 34,000  Level Fort Worth Center
Mon 12:14:47 PM 32.7544 -92.1942 208° Southwest 446 513 34,000  Level Fort Worth Center
Mon 12:15:47 PM 32.6406 -92.2700 209° Southwest 451 519 34,000  Level Fort Worth Center
Mon 12:16:47 PM 32.5306 -92.3353 207° Southwest 451 519 34,000  Level Fort Worth Center
Mon 12:18:24 PM 32.3725 -92.4342 208° Southwest 441 507 34,000  Level Houston Center
Mon 12:19:26 PM 32.2639 -92.5017 208° Southwest 441 507 34,000  Level Houston Center
Mon 12:20:28 PM 32.1333 -92.5806 207° Southwest 439 505 34,000  Level Houston Center
Mon 12:21:30 PM 32.0264 -92.6469 208° Southwest 435 501 34,000  Level Houston Center
Mon 12:22:32 PM 31.9256 -92.7250 213° Southwest 429 494 34,000  Level Houston Center
Mon 12:23:34 PM 31.8331 -92.8147 220° Southwest 431 496 34,000  Level Houston Center
Mon 12:24:37 PM 31.7419 -92.9039 220° Southwest 428 493 34,000  Level Houston Center
Mon 12:25:38 PM 31.6508 -92.9908 219° Southwest 424 488 34,000  Level Houston Center
Mon 12:26:40 PM 31.5397 -93.0969 219° Southwest 429 494 34,000  Level Houston Center
Mon 12:27:42 PM 31.4464 -93.1853 219° Southwest 432 497 34,000  Level Houston Center
Mon 12:28:45 PM 31.3536 -93.2756 220° Southwest 435 501 34,000  Level Houston Center
Mon 12:29:47 PM 31.2608 -93.3625 219° Southwest 430 495 34,000 -97 Level Houston Center
Mon 12:30:49 PM 31.1697 -93.4492 219° Southwest 425 489 33,800 -1,161 Descending Houston Center
Mon 12:31:51 PM 31.0578 -93.5544 219° Southwest 431 496 31,600 -2,032 Descending Houston Center
Mon 12:32:53 PM 30.9636 -93.6450 220° Southwest 440 506 29,600 -1,935 Descending Houston Center
Mon 12:33:55 PM 30.8653 -93.7375 219° Southwest 453 521 27,600 -1,984 Descending Houston Center
Mon 12:34:57 PM 30.7703 -93.8283 219° Southwest 447 514 25,500 -2,270 Descending Houston Center
Mon 12:35:09 PM 30.7383 -93.8603 221° Southwest 437 503 24,800 -2,129 Descending Houston Center
Mon 12:35:59 PM 30.6761 -93.9175 218° Southwest 442 509 23,300 -2,226 Descending Houston Center
Mon 12:36:11 PM 30.6383 -93.9517 218° Southwest 437 503 22,500 -2,613 Descending Houston Center
Mon 12:37:01 PM 30.5678 -94.0192 219° Southwest 422 486 20,600 -2,262 Descending Houston Center
Mon 12:37:12 PM 30.5542 -94.0336 222° Southwest 409 471 20,200 -2,129 Descending Houston Center
Mon 12:38:03 PM 30.4842 -94.0981 218° Southwest 397 457 18,400 -2,226 Descending Houston Center
Mon 12:38:14 PM 30.4636 -94.1161 217° Southwest 388 447 17,900 -2,129 Descending Houston Center
Mon 12:39:05 PM 30.3983 -94.1764 219° Southwest 395 455 16,200 -2,262 Descending Houston Center
Mon 12:39:15 PM 30.3750 -94.1983 219° Southwest 393 452 15,600 -2,226 Descending Houston Center
Mon 12:40:07 PM 30.3150 -94.2558 220° Southwest 390 449 13,900 -2,262 Descending Houston Center
Mon 12:40:16 PM 30.2886 -94.2800 218° Southwest 388 447 13,300 -1,742 Descending Houston Center
Mon 12:41:09 PM 30.2314 -94.3339 219° Southwest 388 447 12,100 -1,279 Descending Houston Center
Mon 12:41:17 PM 30.2086 -94.3631 228° Southwest 388 447 12,000 -194 Descending Houston Center
Mon 12:42:11 PM 30.1814 -94.4675 253° West 392 451 11,900  Descending Houston Center
Mon 12:42:19 PM 30.1767 -94.4858 253° West 392 451 12,000 97 Climbing Houston Center
Mon 12:43:13 PM 30.1633 -94.5692 260° West 388 447 12,000 -197 Level Houston Center
Mon 12:43:20 PM 30.1547 -94.6072 255° West 360 414 11,800 -1,355 Descending Houston Center
Mon 12:44:15 PM 30.1417 -94.6975 261° West 338 389 10,600 -1,355 Descending Houston Center
Mon 12:44:22 PM 30.1375 -94.7108 250° West 323 372 10,400 -1,147 Descending Houston Center
Mon 12:45:23 PM 30.1217 -94.8072 259° West 293 337 9,300 -974 Descending Houston Center
Mon 12:46:19 PM 30.1089 -94.8842 259° West 297 342 8,500 -984 Descending Houston Center
Mon 12:46:24 PM 30.1053 -94.9011 256° West 298 343 8,300 -1,065 Descending Houston Center
Mon 12:47:21 PM 30.1064 -94.9775 271° West 295 339 7,400 -1,065 Descending Houston Center
Mon 12:47:26 PM 30.1061 -94.9975 269° West 289 333 7,200 -871 Descending Houston Center
Mon 12:48:23 PM 30.1061 -95.0686 270° West 288 331 6,500 -787 Descending Houston Center
Mon 12:48:27 PM 30.1064 -95.0917 271° West 286 329 6,400 -484 Descending Houston Center
Mon 12:49:25 PM 30.1064 -95.1761 270° West 282 325 6,000 -393 Descending Houston Center
Mon 12:49:28 PM 30.1067 -95.1836 272° West 282 325 6,000  Level Houston Center
Mon 12:50:30 PM 30.1064 -95.2731 270° West 246 283 6,000  Level Houston Center
Mon 12:51:29 PM 30.1067 -95.3403 270° West 252 290 6,000  Level Houston Center
Mon 12:51:31 PM 30.1069 -95.3478 272° West 228 262 6,000 -952 Level Houston Center
Mon 12:52:32 PM 30.1067 -95.4131 270° West 189 217 5,000 -1,220 Descending Houston Center
Mon 12:53:34 PM 30.0953 -95.4722 257° West 184 212 3,500 -1,415 Descending Houston Center
Mon 12:54:35 PM 30.0483 -95.4875 196° South 179 206 2,100 -878 Descending Houston Center
Mon 12:55:37 PM 30.0103 -95.4608 149° Southeast 145 167 1,700 -488 Descending Houston Center
Mon 12:56:38 PM 30.0064 -95.4178 96° East 136 157 1,100 -581 Descending Houston Center
Mon 12:56:39 PM 30.0075 -95.4200 300° West 150 173 1,100 -689 Level Houston Center
Mon 12:57:39 PM 30.0064 -95.3744 92° East 140 161 400 -677 Descending Houston Center
Mon 12:57:41 PM 30.0072 -95.3764 296° West 141 162 400  Level Houston Center

Login

Don't have an account? Register now (free) for customized features, flight alerts, and more!